sensor_id;sensor_type;location;lat;lon;timestamp;P1;durP1;ratioP1;P2;durP2;ratioP2
40573;SDS011;26283;49.020;8.644;2022-09-03T00:01:02;1.20;;;1.10;;
40573;SDS011;26283;49.020;8.644;2022-09-03T00:03:42;1.47;;;1.20;;
40573;SDS011;26283;49.020;8.644;2022-09-03T00:06:30;1.50;;;1.40;;
40573;SDS011;26283;49.020;8.644;2022-09-03T00:09:02;1.33;;;1.23;;
40573;SDS011;26283;49.020;8.644;2022-09-03T00:11:34;2.40;;;1.23;;
40573;SDS011;26283;49.020;8.644;2022-09-03T00:14:11;1.53;;;1.13;;
40573;SDS011;26283;49.020;8.644;2022-09-03T00:19:19;1.30;;;1.20;;
40573;SDS011;26283;49.020;8.644;2022-09-03T00:24:25;3.17;;;1.43;;
40573;SDS011;26283;49.020;8.644;2022-09-03T00:26:56;1.50;;;1.23;;
40573;SDS011;26283;49.020;8.644;2022-09-03T00:29:31;1.20;;;1.10;;
40573;SDS011;26283;49.020;8.644;2022-09-03T00:32:09;1.20;;;1.20;;
40573;SDS011;26283;49.020;8.644;2022-09-03T00:34:43;1.30;;;1.03;;
40573;SDS011;26283;49.020;8.644;2022-09-03T00:37:11;2.47;;;1.20;;
40573;SDS011;26283;49.020;8.644;2022-09-03T00:39:37;2.23;;;1.10;;
40573;SDS011;26283;49.020;8.644;2022-09-03T00:50:14;1.87;;;1.27;;
40573;SDS011;26283;49.020;8.644;2022-09-03T00:53:10;1.63;;;1.53;;
40573;SDS011;26283;49.020;8.644;2022-09-03T01:01:01;1.87;;;1.27;;
40573;SDS011;26283;49.020;8.644;2022-09-03T01:07:06;1.57;;;1.13;;
40573;SDS011;26283;49.020;8.644;2022-09-03T01:12:12;2.83;;;1.43;;
40573;SDS011;26283;49.020;8.644;2022-09-03T01:20:11;3.00;;;1.43;;
40573;SDS011;26283;49.020;8.644;2022-09-03T01:31:06;2.83;;;1.13;;
40573;SDS011;26283;49.020;8.644;2022-09-03T01:39:35;2.03;;;1.23;;
40573;SDS011;26283;49.020;8.644;2022-09-03T01:42:36;2.10;;;1.30;;
40573;SDS011;26283;49.020;8.644;2022-09-03T01:48:02;1.30;;;1.20;;
40573;SDS011;26283;49.020;8.644;2022-09-03T01:50:39;1.60;;;1.50;;
40573;SDS011;26283;49.020;8.644;2022-09-03T01:53:15;1.60;;;1.23;;
40573;SDS011;26283;49.020;8.644;2022-09-03T02:01:46;3.43;;;1.40;;
40573;SDS011;26283;49.020;8.644;2022-09-03T02:04:19;3.70;;;1.70;;
40573;SDS011;26283;49.020;8.644;2022-09-03T02:06:48;1.73;;;1.30;;
40573;SDS011;26283;49.020;8.644;2022-09-03T02:09:15;2.23;;;1.57;;
40573;SDS011;26283;49.020;8.644;2022-09-03T02:11:41;1.50;;;1.40;;
40573;SDS011;26283;49.020;8.644;2022-09-03T02:14:10;1.37;;;1.27;;
40573;SDS011;26283;49.020;8.644;2022-09-03T02:16:37;3.23;;;1.67;;
40573;SDS011;26283;49.020;8.644;2022-09-03T02:19:07;1.30;;;1.23;;
40573;SDS011;26283;49.020;8.644;2022-09-03T02:21:37;1.40;;;1.30;;
40573;SDS011;26283;49.020;8.644;2022-09-03T02:24:07;3.30;;;1.17;;
40573;SDS011;26283;49.020;8.644;2022-09-03T02:26:33;1.30;;;1.20;;
40573;SDS011;26283;49.020;8.644;2022-09-03T02:29:00;1.80;;;1.30;;
40573;SDS011;26283;49.020;8.644;2022-09-03T02:31:26;2.23;;;1.20;;
40573;SDS011;26283;49.020;8.644;2022-09-03T02:33:52;3.17;;;1.43;;
40573;SDS011;26283;49.020;8.644;2022-09-03T02:36:20;1.83;;;1.40;;
40573;SDS011;26283;49.020;8.644;2022-09-03T02:38:50;1.57;;;1.10;;
40573;SDS011;26283;49.020;8.644;2022-09-03T02:41:16;2.03;;;1.33;;
40573;SDS011;26283;49.020;8.644;2022-09-03T02:46:24;1.80;;;1.40;;
40573;SDS011;26283;49.020;8.644;2022-09-03T02:48:56;2.08;;;1.42;;
40573;SDS011;26283;49.020;8.644;2022-09-03T02:51:22;2.03;;;1.33;;
40573;SDS011;26283;49.020;8.644;2022-09-03T02:53:47;1.77;;;1.50;;
40573;SDS011;26283;49.020;8.644;2022-09-03T02:56:13;2.00;;;1.90;;
40573;SDS011;26283;49.020;8.644;2022-09-03T02:58:38;3.00;;;1.70;;
40573;SDS011;26283;49.020;8.644;2022-09-03T03:01:04;2.27;;;1.53;;
40573;SDS011;26283;49.020;8.644;2022-09-03T03:03:30;1.50;;;1.40;;
40573;SDS011;26283;49.020;8.644;2022-09-03T03:05:56;2.40;;;1.53;;
40573;SDS011;26283;49.020;8.644;2022-09-03T03:08:25;2.43;;;1.60;;
40573;SDS011;26283;49.020;8.644;2022-09-03T03:10:56;2.83;;;1.70;;
40573;SDS011;26283;49.020;8.644;2022-09-03T03:13:23;1.70;;;1.53;;
40573;SDS011;26283;49.020;8.644;2022-09-03T03:15:58;1.30;;;1.30;;
40573;SDS011;26283;49.020;8.644;2022-09-03T03:18:25;1.53;;;1.40;;
40573;SDS011;26283;49.020;8.644;2022-09-03T03:20:52;1.50;;;1.40;;
40573;SDS011;26283;49.020;8.644;2022-09-03T03:23:18;2.70;;;1.30;;
40573;SDS011;26283;49.020;8.644;2022-09-03T03:25:44;2.10;;;1.50;;
40573;SDS011;26283;49.020;8.644;2022-09-03T03:28:10;3.70;;;1.50;;
40573;SDS011;26283;49.020;8.644;2022-09-03T03:30:37;1.83;;;1.40;;
40573;SDS011;26283;49.020;8.644;2022-09-03T03:33:10;2.70;;;1.40;;
40573;SDS011;26283;49.020;8.644;2022-09-03T03:35:35;2.87;;;1.40;;
40573;SDS011;26283;49.020;8.644;2022-09-03T03:38:01;1.50;;;1.40;;
40573;SDS011;26283;49.020;8.644;2022-09-03T03:40:27;2.93;;;1.50;;
40573;SDS011;26283;49.020;8.644;2022-09-03T03:42:52;2.90;;;1.50;;
40573;SDS011;26283;49.020;8.644;2022-09-03T03:45:19;2.33;;;1.63;;
40573;SDS011;26283;49.020;8.644;2022-09-03T03:47:44;2.10;;;1.50;;
40573;SDS011;26283;49.020;8.644;2022-09-03T03:50:10;2.17;;;1.80;;
40573;SDS011;26283;49.020;8.644;2022-09-03T03:52:35;2.30;;;1.40;;
40573;SDS011;26283;49.020;8.644;2022-09-03T03:55:00;2.17;;;1.47;;
40573;SDS011;26283;49.020;8.644;2022-09-03T03:57:28;2.03;;;1.50;;
40573;SDS011;26283;49.020;8.644;2022-09-03T03:59:54;1.80;;;1.50;;
40573;SDS011;26283;49.020;8.644;2022-09-03T04:02:19;1.50;;;1.40;;
40573;SDS011;26283;49.020;8.644;2022-09-03T04:04:45;1.60;;;1.50;;
40573;SDS011;26283;49.020;8.644;2022-09-03T04:07:11;2.20;;;1.37;;
40573;SDS011;26283;49.020;8.644;2022-09-03T04:09:36;1.53;;;1.43;;
40573;SDS011;26283;49.020;8.644;2022-09-03T04:12:02;2.80;;;1.53;;
40573;SDS011;26283;49.020;8.644;2022-09-03T04:14:29;2.90;;;1.80;;
40573;SDS011;26283;49.020;8.644;2022-09-03T04:16:55;1.47;;;1.37;;
40573;SDS011;26283;49.020;8.644;2022-09-03T04:19:20;2.27;;;1.30;;
40573;SDS011;26283;49.020;8.644;2022-09-03T04:21:46;1.43;;;1.33;;
40573;SDS011;26283;49.020;8.644;2022-09-03T04:24:11;1.47;;;1.37;;
40573;SDS011;26283;49.020;8.644;2022-09-03T04:26:37;2.63;;;1.60;;
40573;SDS011;26283;49.020;8.644;2022-09-03T04:29:04;2.07;;;1.50;;
40573;SDS011;26283;49.020;8.644;2022-09-03T04:31:32;1.97;;;1.47;;
40573;SDS011;26283;49.020;8.644;2022-09-03T04:33:58;2.33;;;1.50;;
40573;SDS011;26283;49.020;8.644;2022-09-03T04:36:25;2.17;;;1.60;;
40573;SDS011;26283;49.020;8.644;2022-09-03T04:38:53;2.47;;;1.50;;
40573;SDS011;26283;49.020;8.644;2022-09-03T04:41:23;2.23;;;1.50;;
40573;SDS011;26283;49.020;8.644;2022-09-03T04:43:51;1.70;;;1.60;;
40573;SDS011;26283;49.020;8.644;2022-09-03T04:46:18;2.23;;;1.80;;
40573;SDS011;26283;49.020;8.644;2022-09-03T04:48:48;2.20;;;1.60;;
40573;SDS011;26283;49.020;8.644;2022-09-03T04:51:16;3.33;;;1.57;;
40573;SDS011;26283;49.020;8.644;2022-09-03T04:53:44;3.27;;;1.73;;
40573;SDS011;26283;49.020;8.644;2022-09-03T04:56:12;3.43;;;1.80;;
40573;SDS011;26283;49.020;8.644;2022-09-03T04:58:42;1.70;;;1.60;;
40573;SDS011;26283;49.020;8.644;2022-09-03T05:01:09;3.30;;;1.57;;
40573;SDS011;26283;49.020;8.644;2022-09-03T05:03:36;1.80;;;1.70;;
40573;SDS011;26283;49.020;8.644;2022-09-03T05:06:02;3.40;;;1.67;;
40573;SDS011;26283;49.020;8.644;2022-09-03T05:08:29;2.70;;;1.63;;
40573;SDS011;26283;49.020;8.644;2022-09-03T05:10:59;2.13;;;1.70;;
40573;SDS011;26283;49.020;8.644;2022-09-03T05:13:25;1.70;;;1.60;;
40573;SDS011;26283;49.020;8.644;2022-09-03T05:15:51;3.27;;;2.10;;
40573;SDS011;26283;49.020;8.644;2022-09-03T05:18:16;2.10;;;1.40;;
40573;SDS011;26283;49.020;8.644;2022-09-03T05:20:42;2.87;;;1.87;;
40573;SDS011;26283;49.020;8.644;2022-09-03T05:23:07;2.40;;;1.70;;
40573;SDS011;26283;49.020;8.644;2022-09-03T05:25:33;1.70;;;1.60;;
40573;SDS011;26283;49.020;8.644;2022-09-03T05:27:58;1.97;;;1.70;;
40573;SDS011;26283;49.020;8.644;2022-09-03T05:30:24;3.93;;;1.60;;
40573;SDS011;26283;49.020;8.644;2022-09-03T05:32:49;1.83;;;1.70;;
40573;SDS011;26283;49.020;8.644;2022-09-03T05:35:15;1.60;;;1.50;;
40573;SDS011;26283;49.020;8.644;2022-09-03T05:37:40;2.07;;;1.70;;
40573;SDS011;26283;49.020;8.644;2022-09-03T05:40:06;1.93;;;1.60;;
40573;SDS011;26283;49.020;8.644;2022-09-03T05:42:34;1.80;;;1.50;;
40573;SDS011;26283;49.020;8.644;2022-09-03T05:45:02;1.83;;;1.53;;
40573;SDS011;26283;49.020;8.644;2022-09-03T05:47:34;3.23;;;1.70;;
40573;SDS011;26283;49.020;8.644;2022-09-03T05:50:01;3.27;;;1.83;;
40573;SDS011;26283;49.020;8.644;2022-09-03T05:52:26;2.10;;;1.50;;
40573;SDS011;26283;49.020;8.644;2022-09-03T05:54:51;3.13;;;1.97;;
40573;SDS011;26283;49.020;8.644;2022-09-03T05:57:17;3.30;;;2.17;;
40573;SDS011;26283;49.020;8.644;2022-09-03T05:59:42;3.30;;;2.20;;
40573;SDS011;26283;49.020;8.644;2022-09-03T06:02:08;4.17;;;2.00;;
40573;SDS011;26283;49.020;8.644;2022-09-03T06:04:33;2.10;;;1.87;;
40573;SDS011;26283;49.020;8.644;2022-09-03T06:06:58;4.03;;;1.90;;
40573;SDS011;26283;49.020;8.644;2022-09-03T06:09:24;2.10;;;1.90;;
40573;SDS011;26283;49.020;8.644;2022-09-03T06:11:49;1.70;;;1.60;;
40573;SDS011;26283;49.020;8.644;2022-09-03T06:14:16;2.23;;;1.67;;
40573;SDS011;26283;49.020;8.644;2022-09-03T06:16:43;2.53;;;1.70;;
40573;SDS011;26283;49.020;8.644;2022-09-03T06:19:10;2.07;;;1.97;;
40573;SDS011;26283;49.020;8.644;2022-09-03T06:21:38;1.73;;;1.63;;
40573;SDS011;26283;49.020;8.644;2022-09-03T06:24:07;3.20;;;1.70;;
40573;SDS011;26283;49.020;8.644;2022-09-03T06:26:34;2.50;;;1.57;;
40573;SDS011;26283;49.020;8.644;2022-09-03T06:28:59;3.47;;;2.00;;
40573;SDS011;26283;49.020;8.644;2022-09-03T06:31:25;1.80;;;1.70;;
40573;SDS011;26283;49.020;8.644;2022-09-03T06:33:51;2.20;;;2.00;;
40573;SDS011;26283;49.020;8.644;2022-09-03T06:36:18;2.53;;;1.60;;
40573;SDS011;26283;49.020;8.644;2022-09-03T06:38:44;2.00;;;1.47;;
40573;SDS011;26283;49.020;8.644;2022-09-03T06:41:13;1.67;;;1.43;;
40573;SDS011;26283;49.020;8.644;2022-09-03T06:43:49;1.53;;;1.43;;
40573;SDS011;26283;49.020;8.644;2022-09-03T06:46:17;3.90;;;1.53;;
40573;SDS011;26283;49.020;8.644;2022-09-03T06:48:44;1.70;;;1.60;;
40573;SDS011;26283;49.020;8.644;2022-09-03T06:51:14;1.53;;;1.40;;
40573;SDS011;26283;49.020;8.644;2022-09-03T06:53:45;1.77;;;1.43;;
40573;SDS011;26283;49.020;8.644;2022-09-03T06:56:13;2.43;;;2.00;;
40573;SDS011;26283;49.020;8.644;2022-09-03T06:58:41;2.10;;;1.70;;
40573;SDS011;26283;49.020;8.644;2022-09-03T07:01:13;1.83;;;1.60;;
40573;SDS011;26283;49.020;8.644;2022-09-03T07:03:40;2.20;;;1.90;;
40573;SDS011;26283;49.020;8.644;2022-09-03T07:06:11;2.27;;;2.10;;
40573;SDS011;26283;49.020;8.644;2022-09-03T07:08:41;2.00;;;1.90;;
40573;SDS011;26283;49.020;8.644;2022-09-03T07:11:11;2.70;;;2.00;;
40573;SDS011;26283;49.020;8.644;2022-09-03T07:13:42;2.83;;;2.20;;
40573;SDS011;26283;49.020;8.644;2022-09-03T07:16:10;2.03;;;1.80;;
40573;SDS011;26283;49.020;8.644;2022-09-03T07:18:37;2.07;;;1.97;;
40573;SDS011;26283;49.020;8.644;2022-09-03T07:21:05;2.13;;;2.03;;
40573;SDS011;26283;49.020;8.644;2022-09-03T07:23:31;3.20;;;2.00;;
40573;SDS011;26283;49.020;8.644;2022-09-03T07:26:02;3.33;;;1.90;;
40573;SDS011;26283;49.020;8.644;2022-09-03T07:28:29;3.10;;;1.90;;
40573;SDS011;26283;49.020;8.644;2022-09-03T07:31:02;2.27;;;1.93;;
40573;SDS011;26283;49.020;8.644;2022-09-03T07:33:30;2.47;;;1.80;;
40573;SDS011;26283;49.020;8.644;2022-09-03T07:36:00;1.90;;;1.80;;
40573;SDS011;26283;49.020;8.644;2022-09-03T07:38:27;2.30;;;1.87;;
40573;SDS011;26283;49.020;8.644;2022-09-03T07:40:56;4.20;;;2.07;;
40573;SDS011;26283;49.020;8.644;2022-09-03T07:43:24;2.77;;;1.83;;
40573;SDS011;26283;49.020;8.644;2022-09-03T07:45:54;2.97;;;1.80;;
40573;SDS011;26283;49.020;8.644;2022-09-03T07:48:22;3.13;;;2.20;;
40573;SDS011;26283;49.020;8.644;2022-09-03T07:50:47;2.40;;;2.00;;
40573;SDS011;26283;49.020;8.644;2022-09-03T07:53:14;2.10;;;1.90;;
40573;SDS011;26283;49.020;8.644;2022-09-03T07:55:41;3.13;;;2.30;;
40573;SDS011;26283;49.020;8.644;2022-09-03T07:58:08;2.80;;;1.87;;
40573;SDS011;26283;49.020;8.644;2022-09-03T08:00:34;2.87;;;1.70;;
40573;SDS011;26283;49.020;8.644;2022-09-03T08:03:00;2.10;;;1.90;;
40573;SDS011;26283;49.020;8.644;2022-09-03T08:05:31;2.50;;;2.30;;
40573;SDS011;26283;49.020;8.644;2022-09-03T08:07:58;2.20;;;1.70;;
40573;SDS011;26283;49.020;8.644;2022-09-03T08:10:25;1.90;;;1.60;;
40573;SDS011;26283;49.020;8.644;2022-09-03T08:12:52;3.13;;;2.93;;
40573;SDS011;26283;49.020;8.644;2022-09-03T08:15:18;2.97;;;2.33;;
40573;SDS011;26283;49.020;8.644;2022-09-03T08:17:43;2.13;;;1.93;;
40573;SDS011;26283;49.020;8.644;2022-09-03T08:20:09;2.03;;;1.73;;
40573;SDS011;26283;49.020;8.644;2022-09-03T08:22:34;3.53;;;1.60;;
40573;SDS011;26283;49.020;8.644;2022-09-03T08:25:01;2.07;;;1.90;;
40573;SDS011;26283;49.020;8.644;2022-09-03T08:27:27;2.43;;;1.80;;
40573;SDS011;26283;49.020;8.644;2022-09-03T08:29:54;3.00;;;1.97;;
40573;SDS011;26283;49.020;8.644;2022-09-03T08:32:19;4.03;;;2.20;;
40573;SDS011;26283;49.020;8.644;2022-09-03T08:34:45;2.10;;;1.90;;
40573;SDS011;26283;49.020;8.644;2022-09-03T08:37:11;2.70;;;1.80;;
40573;SDS011;26283;49.020;8.644;2022-09-03T08:39:37;4.60;;;2.03;;
40573;SDS011;26283;49.020;8.644;2022-09-03T08:42:18;1.63;;;1.53;;
40573;SDS011;26283;49.020;8.644;2022-09-03T08:44:51;3.10;;;2.30;;
40573;SDS011;26283;49.020;8.644;2022-09-03T08:58:19;1.93;;;1.73;;
40573;SDS011;26283;49.020;8.644;2022-09-03T09:00:51;2.83;;;1.67;;
40573;SDS011;26283;49.020;8.644;2022-09-03T09:03:28;2.30;;;2.07;;
40573;SDS011;26283;49.020;8.644;2022-09-03T09:07:05;2.13;;;2.00;;
40573;SDS011;26283;49.020;8.644;2022-09-03T09:14:33;2.50;;;2.30;;
40573;SDS011;26283;49.020;8.644;2022-09-03T09:17:26;3.07;;;2.10;;
40573;SDS011;26283;49.020;8.644;2022-09-03T09:22:34;3.00;;;2.10;;
40573;SDS011;26283;49.020;8.644;2022-09-03T09:25:07;2.93;;;2.10;;
40573;SDS011;26283;49.020;8.644;2022-09-03T09:27:40;2.17;;;2.07;;
40573;SDS011;26283;49.020;8.644;2022-09-03T09:30:13;2.80;;;2.37;;
40573;SDS011;26283;49.020;8.644;2022-09-03T09:32:42;3.03;;;2.80;;
40573;SDS011;26283;49.020;8.644;2022-09-03T09:35:08;3.20;;;2.20;;
40573;SDS011;26283;49.020;8.644;2022-09-03T09:37:34;2.80;;;2.60;;
40573;SDS011;26283;49.020;8.644;2022-09-03T09:40:20;3.80;;;2.37;;
40573;SDS011;26283;49.020;8.644;2022-09-03T09:42:50;2.67;;;2.47;;
40573;SDS011;26283;49.020;8.644;2022-09-03T09:45:22;3.60;;;2.70;;
40573;SDS011;26283;49.020;8.644;2022-09-03T09:47:48;2.90;;;2.70;;
40573;SDS011;26283;49.020;8.644;2022-09-03T09:50:17;2.40;;;2.30;;
40573;SDS011;26283;49.020;8.644;2022-09-03T09:52:45;2.80;;;2.37;;
40573;SDS011;26283;49.020;8.644;2022-09-03T09:55:15;2.60;;;2.40;;
40573;SDS011;26283;49.020;8.644;2022-09-03T09:57:43;2.10;;;2.00;;
40573;SDS011;26283;49.020;8.644;2022-09-03T10:02:37;2.83;;;2.60;;
40573;SDS011;26283;49.020;8.644;2022-09-03T10:05:13;2.37;;;2.23;;
40573;SDS011;26283;49.020;8.644;2022-09-03T10:07:53;2.60;;;2.40;;
40573;SDS011;26283;49.020;8.644;2022-09-03T10:10:23;3.33;;;2.37;;
40573;SDS011;26283;49.020;8.644;2022-09-03T10:12:52;2.77;;;2.57;;
40573;SDS011;26283;49.020;8.644;2022-09-03T10:15:37;3.03;;;2.60;;
40573;SDS011;26283;49.020;8.644;2022-09-03T10:18:21;4.13;;;2.87;;
40573;SDS011;26283;49.020;8.644;2022-09-03T10:21:12;2.40;;;2.30;;
40573;SDS011;26283;49.020;8.644;2022-09-03T10:26:12;3.37;;;3.07;;
40573;SDS011;26283;49.020;8.644;2022-09-03T10:28:41;22.57;;;14.67;;
40573;SDS011;26283;49.020;8.644;2022-09-03T10:39:23;2.90;;;2.70;;
40573;SDS011;26283;49.020;8.644;2022-09-03T10:44:40;2.70;;;2.50;;
40573;SDS011;26283;49.020;8.644;2022-09-03T10:50:22;2.67;;;2.47;;
40573;SDS011;26283;49.020;8.644;2022-09-03T10:55:55;2.37;;;2.27;;
40573;SDS011;26283;49.020;8.644;2022-09-03T11:07:09;2.60;;;2.40;;
40573;SDS011;26283;49.020;8.644;2022-09-03T11:09:42;2.70;;;2.50;;
40573;SDS011;26283;49.020;8.644;2022-09-03T11:12:23;2.80;;;2.60;;
40573;SDS011;26283;49.020;8.644;2022-09-03T11:14:56;3.97;;;3.30;;
40573;SDS011;26283;49.020;8.644;2022-09-03T11:17:39;3.17;;;2.93;;
40573;SDS011;26283;49.020;8.644;2022-09-03T11:20:16;2.73;;;2.50;;
40573;SDS011;26283;49.020;8.644;2022-09-03T11:22:43;3.37;;;2.73;;
40573;SDS011;26283;49.020;8.644;2022-09-03T11:25:11;3.00;;;2.77;;
40573;SDS011;26283;49.020;8.644;2022-09-03T11:30:07;2.67;;;2.50;;
40573;SDS011;26283;49.020;8.644;2022-09-03T11:35:12;3.60;;;3.30;;
40573;SDS011;26283;49.020;8.644;2022-09-03T11:37:51;4.03;;;3.23;;
40573;SDS011;26283;49.020;8.644;2022-09-03T11:40:19;4.67;;;3.43;;
40573;SDS011;26283;49.020;8.644;2022-09-03T11:42:46;5.60;;;3.40;;
40573;SDS011;26283;49.020;8.644;2022-09-03T11:47:43;4.90;;;4.40;;
40573;SDS011;26283;49.020;8.644;2022-09-03T11:50:24;3.93;;;3.63;;
40573;SDS011;26283;49.020;8.644;2022-09-03T11:52:52;4.37;;;3.97;;
40573;SDS011;26283;49.020;8.644;2022-09-03T11:56:12;4.03;;;3.73;;
40573;SDS011;26283;49.020;8.644;2022-09-03T11:58:25;4.23;;;3.87;;
40573;SDS011;26283;49.020;8.644;2022-09-03T12:00:57;4.10;;;3.60;;
40573;SDS011;26283;49.020;8.644;2022-09-03T12:03:34;4.43;;;3.90;;
40573;SDS011;26283;49.020;8.644;2022-09-03T12:06:27;4.20;;;3.53;;
40573;SDS011;26283;49.020;8.644;2022-09-03T12:16:48;4.73;;;4.43;;
40573;SDS011;26283;49.020;8.644;2022-09-03T12:19:37;4.60;;;4.20;;
40573;SDS011;26283;49.020;8.644;2022-09-03T12:22:06;4.03;;;3.73;;
40573;SDS011;26283;49.020;8.644;2022-09-03T12:24:39;4.13;;;3.60;;
40573;SDS011;26283;49.020;8.644;2022-09-03T12:27:07;3.50;;;3.30;;
40573;SDS011;26283;49.020;8.644;2022-09-03T12:29:37;3.63;;;3.43;;
40573;SDS011;26283;49.020;8.644;2022-09-03T12:32:14;4.00;;;3.57;;
40573;SDS011;26283;49.020;8.644;2022-09-03T12:34:40;3.50;;;3.20;;
40573;SDS011;26283;49.020;8.644;2022-09-03T12:37:15;4.43;;;3.43;;
40573;SDS011;26283;49.020;8.644;2022-09-03T12:39:48;3.67;;;3.47;;
40573;SDS011;26283;49.020;8.644;2022-09-03T12:42:25;3.53;;;3.33;;
40573;SDS011;26283;49.020;8.644;2022-09-03T12:44:52;3.87;;;3.57;;
40573;SDS011;26283;49.020;8.644;2022-09-03T12:47:19;4.20;;;3.53;;
40573;SDS011;26283;49.020;8.644;2022-09-03T12:49:46;3.80;;;3.60;;
40573;SDS011;26283;49.020;8.644;2022-09-03T12:55:07;3.70;;;3.40;;
40573;SDS011;26283;49.020;8.644;2022-09-03T12:57:55;3.80;;;3.50;;
40573;SDS011;26283;49.020;8.644;2022-09-03T13:00:21;3.90;;;3.60;;
40573;SDS011;26283;49.020;8.644;2022-09-03T13:02:59;3.30;;;3.10;;
40573;SDS011;26283;49.020;8.644;2022-09-03T13:05:51;3.87;;;3.40;;
40573;SDS011;26283;49.020;8.644;2022-09-03T13:08:25;3.67;;;3.37;;
40573;SDS011;26283;49.020;8.644;2022-09-03T13:10:57;3.90;;;3.53;;
40573;SDS011;26283;49.020;8.644;2022-09-03T13:13:35;3.60;;;3.30;;
40573;SDS011;26283;49.020;8.644;2022-09-03T13:18:37;3.57;;;3.27;;
40573;SDS011;26283;49.020;8.644;2022-09-03T13:29:52;3.60;;;3.30;;
40573;SDS011;26283;49.020;8.644;2022-09-03T13:32:41;3.40;;;3.20;;
40573;SDS011;26283;49.020;8.644;2022-09-03T13:40:48;3.07;;;2.87;;
40573;SDS011;26283;49.020;8.644;2022-09-03T13:46:11;3.27;;;3.07;;
40573;SDS011;26283;49.020;8.644;2022-09-03T13:48:44;3.00;;;2.67;;
40573;SDS011;26283;49.020;8.644;2022-09-03T13:54:33;3.90;;;3.50;;
40573;SDS011;26283;49.020;8.644;2022-09-03T13:59:59;3.63;;;3.33;;
40573;SDS011;26283;49.020;8.644;2022-09-03T14:08:00;3.13;;;2.00;;
40573;SDS011;26283;49.020;8.644;2022-09-03T14:10:44;3.37;;;1.60;;
40573;SDS011;26283;49.020;8.644;2022-09-03T14:13:29;2.00;;;1.90;;
40573;SDS011;26283;49.020;8.644;2022-09-03T14:16:27;1.70;;;1.60;;
40573;SDS011;26283;49.020;8.644;2022-09-03T14:22:18;1.47;;;1.37;;
40573;SDS011;26283;49.020;8.644;2022-09-03T14:27:28;1.10;;;1.10;;
40573;SDS011;26283;49.020;8.644;2022-09-03T14:29:59;1.20;;;1.10;;
40573;SDS011;26283;49.020;8.644;2022-09-03T14:32:28;0.87;;;0.87;;
40573;SDS011;26283;49.020;8.644;2022-09-03T14:37:50;1.00;;;0.97;;
40573;SDS011;26283;49.020;8.644;2022-09-03T14:51:43;0.80;;;0.80;;
40573;SDS011;26283;49.020;8.644;2022-09-03T14:57:05;1.93;;;0.73;;
40573;SDS011;26283;49.020;8.644;2022-09-03T15:13:22;0.80;;;0.70;;
40573;SDS011;26283;49.020;8.644;2022-09-03T15:18:29;1.17;;;0.97;;
40573;SDS011;26283;49.020;8.644;2022-09-03T15:21:20;1.17;;;0.93;;
40573;SDS011;26283;49.020;8.644;2022-09-03T15:24:18;0.70;;;0.70;;
40573;SDS011;26283;49.020;8.644;2022-09-03T15:30:04;1.00;;;0.90;;
40573;SDS011;26283;49.020;8.644;2022-09-03T15:38:05;0.63;;;0.63;;
40573;SDS011;26283;49.020;8.644;2022-09-03T15:40:49;0.82;;;0.70;;
40573;SDS011;26283;49.020;8.644;2022-09-03T15:43:21;1.17;;;0.80;;
40573;SDS011;26283;49.020;8.644;2022-09-03T15:45:52;1.57;;;0.53;;
40573;SDS011;26283;49.020;8.644;2022-09-03T15:48:25;0.60;;;0.60;;
40573;SDS011;26283;49.020;8.644;2022-09-03T15:53:43;1.60;;;0.70;;
40573;SDS011;26283;49.020;8.644;2022-09-03T15:56:17;0.80;;;0.75;;
40573;SDS011;26283;49.020;8.644;2022-09-03T16:01:58;0.70;;;0.70;;
40573;SDS011;26283;49.020;8.644;2022-09-03T16:06:52;0.90;;;0.90;;
40573;SDS011;26283;49.020;8.644;2022-09-03T16:15:25;0.80;;;0.80;;
40573;SDS011;26283;49.020;8.644;2022-09-03T16:18:05;0.80;;;0.80;;
40573;SDS011;26283;49.020;8.644;2022-09-03T16:21:02;0.70;;;0.70;;
40573;SDS011;26283;49.020;8.644;2022-09-03T16:23:40;0.80;;;0.80;;
40573;SDS011;26283;49.020;8.644;2022-09-03T16:26:20;0.52;;;0.52;;
40573;SDS011;26283;49.020;8.644;2022-09-03T16:28:52;1.30;;;0.80;;
40573;SDS011;26283;49.020;8.644;2022-09-03T16:34:29;0.77;;;0.77;;
40573;SDS011;26283;49.020;8.644;2022-09-03T16:40:19;1.00;;;0.80;;
40573;SDS011;26283;49.020;8.644;2022-09-03T16:52:11;1.00;;;1.00;;
40573;SDS011;26283;49.020;8.644;2022-09-03T16:55:19;0.80;;;0.80;;
40573;SDS011;26283;49.020;8.644;2022-09-03T17:00:19;1.55;;;0.77;;
40573;SDS011;26283;49.020;8.644;2022-09-03T17:24:45;1.20;;;0.70;;
40573;SDS011;26283;49.020;8.644;2022-09-03T17:27:51;1.02;;;0.85;;
40573;SDS011;26283;49.020;8.644;2022-09-03T17:30:19;2.25;;;0.70;;
40573;SDS011;26283;49.020;8.644;2022-09-03T17:38:29;0.73;;;0.73;;
40573;SDS011;26283;49.020;8.644;2022-09-03T17:41:08;1.40;;;0.97;;
40573;SDS011;26283;49.020;8.644;2022-09-03T17:43:42;0.80;;;0.80;;
40573;SDS011;26283;49.020;8.644;2022-09-03T17:47:26;0.80;;;0.80;;
40573;SDS011;26283;49.020;8.644;2022-09-03T17:49:53;0.70;;;0.70;;
40573;SDS011;26283;49.020;8.644;2022-09-03T17:55:00;1.27;;;0.70;;
40573;SDS011;26283;49.020;8.644;2022-09-03T17:57:39;1.08;;;0.70;;
40573;SDS011;26283;49.020;8.644;2022-09-03T18:00:11;2.22;;;0.80;;
40573;SDS011;26283;49.020;8.644;2022-09-03T18:05:41;1.10;;;1.00;;
40573;SDS011;26283;49.020;8.644;2022-09-03T18:08:17;1.08;;;1.00;;
40573;SDS011;26283;49.020;8.644;2022-09-03T18:16:34;0.80;;;0.80;;
40573;SDS011;26283;49.020;8.644;2022-09-03T18:19:17;0.80;;;0.80;;
40573;SDS011;26283;49.020;8.644;2022-09-03T18:21:53;1.40;;;0.83;;
40573;SDS011;26283;49.020;8.644;2022-09-03T18:24:40;1.07;;;0.93;;
40573;SDS011;26283;49.020;8.644;2022-09-03T18:27:32;0.80;;;0.80;;
40573;SDS011;26283;49.020;8.644;2022-09-03T18:30:28;0.73;;;0.73;;
40573;SDS011;26283;49.020;8.644;2022-09-03T18:33:12;0.90;;;0.90;;
40573;SDS011;26283;49.020;8.644;2022-09-03T18:35:57;0.87;;;0.70;;
40573;SDS011;26283;49.020;8.644;2022-09-03T18:38:41;0.75;;;0.75;;
40573;SDS011;26283;49.020;8.644;2022-09-03T18:47:38;0.90;;;0.90;;
40573;SDS011;26283;49.020;8.644;2022-09-03T18:56:45;1.33;;;1.00;;
40573;SDS011;26283;49.020;8.644;2022-09-03T19:12:51;1.03;;;0.93;;
40573;SDS011;26283;49.020;8.644;2022-09-03T19:15:24;1.27;;;1.00;;
40573;SDS011;26283;49.020;8.644;2022-09-03T19:21:48;1.07;;;1.00;;
40573;SDS011;26283;49.020;8.644;2022-09-03T19:24:37;1.10;;;1.10;;
40573;SDS011;26283;49.020;8.644;2022-09-03T19:27:34;1.53;;;1.40;;
40573;SDS011;26283;49.020;8.644;2022-09-03T19:37:24;1.52;;;1.42;;
40573;SDS011;26283;49.020;8.644;2022-09-03T19:40:16;2.30;;;1.80;;
40573;SDS011;26283;49.020;8.644;2022-09-03T19:43:25;1.70;;;1.60;;
40573;SDS011;26283;49.020;8.644;2022-09-03T19:52:44;1.70;;;1.60;;
40573;SDS011;26283;49.020;8.644;2022-09-03T19:56:10;1.73;;;1.60;;
40573;SDS011;26283;49.020;8.644;2022-09-03T19:59:06;2.00;;;1.70;;
40573;SDS011;26283;49.020;8.644;2022-09-03T20:01:55;1.83;;;1.50;;
40573;SDS011;26283;49.020;8.644;2022-09-03T20:04:51;1.77;;;1.67;;
40573;SDS011;26283;49.020;8.644;2022-09-03T20:07:40;1.70;;;1.60;;
40573;SDS011;26283;49.020;8.644;2022-09-03T20:10:25;1.83;;;1.73;;
40573;SDS011;26283;49.020;8.644;2022-09-03T20:13:00;1.50;;;1.47;;
40573;SDS011;26283;49.020;8.644;2022-09-03T20:16:18;1.53;;;1.43;;
40573;SDS011;26283;49.020;8.644;2022-09-03T20:18:46;2.93;;;1.63;;
40573;SDS011;26283;49.020;8.644;2022-09-03T20:32:01;1.57;;;1.47;;
40573;SDS011;26283;49.020;8.644;2022-09-03T20:34:50;1.80;;;1.70;;
40573;SDS011;26283;49.020;8.644;2022-09-03T20:37:40;2.12;;;1.45;;
40573;SDS011;26283;49.020;8.644;2022-09-03T20:51:18;1.83;;;1.73;;
40573;SDS011;26283;49.020;8.644;2022-09-03T20:53:55;2.33;;;1.40;;
40573;SDS011;26283;49.020;8.644;2022-09-03T20:59:24;2.57;;;1.60;;
40573;SDS011;26283;49.020;8.644;2022-09-03T21:10:07;2.60;;;1.70;;
40573;SDS011;26283;49.020;8.644;2022-09-03T21:21:01;1.77;;;1.63;;